sensor_id;sensor_type;location;lat;lon;timestamp;temperature;humidity
28548;DHT22;68292;49.600;8.746;2023-05-29T00:02:16;22.40;43.90
28548;DHT22;68292;49.600;8.746;2023-05-29T00:04:44;22.40;43.80
28548;DHT22;68292;49.600;8.746;2023-05-29T00:07:12;22.40;43.60
28548;DHT22;68292;49.600;8.746;2023-05-29T00:09:40;22.40;43.80
28548;DHT22;68292;49.600;8.746;2023-05-29T00:12:10;22.40;43.70
28548;DHT22;68292;49.600;8.746;2023-05-29T00:14:38;22.30;43.30
28548;DHT22;68292;49.600;8.746;2023-05-29T00:17:07;22.30;43.60
28548;DHT22;68292;49.600;8.746;2023-05-29T00:19:35;22.40;43.80
28548;DHT22;68292;49.600;8.746;2023-05-29T00:22:03;22.40;43.90
28548;DHT22;68292;49.600;8.746;2023-05-29T00:24:31;22.30;43.80
28548;DHT22;68292;49.600;8.746;2023-05-29T00:26:59;22.30;43.70
28548;DHT22;68292;49.600;8.746;2023-05-29T00:29:29;22.30;43.80
28548;DHT22;68292;49.600;8.746;2023-05-29T00:31:57;22.30;43.90
28548;DHT22;68292;49.600;8.746;2023-05-29T00:34:25;22.30;43.80
28548;DHT22;68292;49.600;8.746;2023-05-29T00:36:53;22.30;43.60
28548;DHT22;68292;49.600;8.746;2023-05-29T00:39:22;22.30;43.60
28548;DHT22;68292;49.600;8.746;2023-05-29T00:41:50;22.30;43.30
28548;DHT22;68292;49.600;8.746;2023-05-29T00:44:18;22.30;43.30
28548;DHT22;68292;49.600;8.746;2023-05-29T00:46:49;22.30;43.30
28548;DHT22;68292;49.600;8.746;2023-05-29T00:49:20;22.30;43.10
28548;DHT22;68292;49.600;8.746;2023-05-29T00:51:52;22.30;43.20
28548;DHT22;68292;49.600;8.746;2023-05-29T00:54:25;22.20;43.20
28548;DHT22;68292;49.600;8.746;2023-05-29T00:56:54;22.20;43.40
28548;DHT22;68292;49.600;8.746;2023-05-29T00:59:22;22.20;43.60
28548;DHT22;68292;49.600;8.746;2023-05-29T01:01:53;22.20;43.50
28548;DHT22;68292;49.600;8.746;2023-05-29T01:04:23;22.20;43.50
28548;DHT22;68292;49.600;8.746;2023-05-29T01:06:52;22.20;43.50
28548;DHT22;68292;49.600;8.746;2023-05-29T01:09:20;22.20;44.40
28548;DHT22;68292;49.600;8.746;2023-05-29T01:11:54;22.20;43.50
28548;DHT22;68292;49.600;8.746;2023-05-29T01:14:32;22.20;43.50
28548;DHT22;68292;49.600;8.746;2023-05-29T01:17:12;22.20;43.60
28548;DHT22;68292;49.600;8.746;2023-05-29T01:20:05;22.20;43.40
28548;DHT22;68292;49.600;8.746;2023-05-29T01:22:54;22.10;43.10
28548;DHT22;68292;49.600;8.746;2023-05-29T01:25:50;22.10;43.40
28548;DHT22;68292;49.600;8.746;2023-05-29T01:28:26;22.20;43.50
28548;DHT22;68292;49.600;8.746;2023-05-29T01:30:57;22.10;43.50
28548;DHT22;68292;49.600;8.746;2023-05-29T01:33:26;22.10;43.50
28548;DHT22;68292;49.600;8.746;2023-05-29T01:35:54;22.10;43.60
28548;DHT22;68292;49.600;8.746;2023-05-29T01:38:22;22.10;43.60
28548;DHT22;68292;49.600;8.746;2023-05-29T01:40:51;22.10;43.60
28548;DHT22;68292;49.600;8.746;2023-05-29T01:43:19;22.00;43.50
28548;DHT22;68292;49.600;8.746;2023-05-29T01:45:50;22.00;43.70
28548;DHT22;68292;49.600;8.746;2023-05-29T01:48:18;22.00;43.60
28548;DHT22;68292;49.600;8.746;2023-05-29T01:50:47;22.00;43.60
28548;DHT22;68292;49.600;8.746;2023-05-29T01:53:16;22.00;43.70
28548;DHT22;68292;49.600;8.746;2023-05-29T01:55:44;22.00;43.50
28548;DHT22;68292;49.600;8.746;2023-05-29T01:58:13;22.00;43.50
28548;DHT22;68292;49.600;8.746;2023-05-29T02:00:42;21.90;43.50
28548;DHT22;68292;49.600;8.746;2023-05-29T02:03:11;21.90;43.50
28548;DHT22;68292;49.600;8.746;2023-05-29T02:05:40;21.90;43.40
28548;DHT22;68292;49.600;8.746;2023-05-29T02:08:08;21.90;43.40
28548;DHT22;68292;49.600;8.746;2023-05-29T02:10:36;21.90;43.40
28548;DHT22;68292;49.600;8.746;2023-05-29T02:13:04;21.90;43.50
28548;DHT22;68292;49.600;8.746;2023-05-29T02:15:32;21.90;43.40
28548;DHT22;68292;49.600;8.746;2023-05-29T02:18:00;21.80;43.40
28548;DHT22;68292;49.600;8.746;2023-05-29T02:20:30;21.90;43.60
28548;DHT22;68292;49.600;8.746;2023-05-29T02:22:58;21.80;43.50
28548;DHT22;68292;49.600;8.746;2023-05-29T02:25:25;21.80;43.50
28548;DHT22;68292;49.600;8.746;2023-05-29T02:27:53;21.80;43.50
28548;DHT22;68292;49.600;8.746;2023-05-29T02:30:22;21.80;43.50
28548;DHT22;68292;49.600;8.746;2023-05-29T02:32:50;21.70;43.50
28548;DHT22;68292;49.600;8.746;2023-05-29T02:35:18;21.70;43.40
28548;DHT22;68292;49.600;8.746;2023-05-29T02:37:50;21.70;43.50
28548;DHT22;68292;49.600;8.746;2023-05-29T02:40:18;21.70;43.50
28548;DHT22;68292;49.600;8.746;2023-05-29T02:42:47;21.70;43.50
28548;DHT22;68292;49.600;8.746;2023-05-29T02:45:15;21.70;43.70
28548;DHT22;68292;49.600;8.746;2023-05-29T02:47:43;21.60;43.60
28548;DHT22;68292;49.600;8.746;2023-05-29T02:50:11;21.60;43.70
28548;DHT22;68292;49.600;8.746;2023-05-29T02:52:41;21.60;43.60
28548;DHT22;68292;49.600;8.746;2023-05-29T02:55:10;21.60;43.50
28548;DHT22;68292;49.600;8.746;2023-05-29T02:57:38;21.60;43.50
28548;DHT22;68292;49.600;8.746;2023-05-29T03:00:07;21.60;43.50
28548;DHT22;68292;49.600;8.746;2023-05-29T03:02:37;21.50;43.50
28548;DHT22;68292;49.600;8.746;2023-05-29T03:05:06;21.50;43.60
28548;DHT22;68292;49.600;8.746;2023-05-29T03:07:35;21.50;43.70
28548;DHT22;68292;49.600;8.746;2023-05-29T03:10:03;21.50;43.60
28548;DHT22;68292;49.600;8.746;2023-05-29T03:12:33;21.50;43.60
28548;DHT22;68292;49.600;8.746;2023-05-29T03:15:01;21.50;43.50
28548;DHT22;68292;49.600;8.746;2023-05-29T03:17:30;21.50;43.70
28548;DHT22;68292;49.600;8.746;2023-05-29T03:19:58;21.40;43.60
28548;DHT22;68292;49.600;8.746;2023-05-29T03:22:26;21.40;43.50
28548;DHT22;68292;49.600;8.746;2023-05-29T03:24:54;21.40;43.50
28548;DHT22;68292;49.600;8.746;2023-05-29T03:27:23;21.40;43.70
28548;DHT22;68292;49.600;8.746;2023-05-29T03:30:00;21.40;43.70
28548;DHT22;68292;49.600;8.746;2023-05-29T03:32:30;21.40;43.70
28548;DHT22;68292;49.600;8.746;2023-05-29T03:34:58;21.40;43.70
28548;DHT22;68292;49.600;8.746;2023-05-29T03:37:27;21.40;43.70
28548;DHT22;68292;49.600;8.746;2023-05-29T03:39:55;21.30;43.80
28548;DHT22;68292;49.600;8.746;2023-05-29T03:42:23;21.30;43.70
28548;DHT22;68292;49.600;8.746;2023-05-29T03:44:52;21.30;43.50
28548;DHT22;68292;49.600;8.746;2023-05-29T03:47:24;21.30;43.60
28548;DHT22;68292;49.600;8.746;2023-05-29T03:49:53;21.30;43.60
28548;DHT22;68292;49.600;8.746;2023-05-29T03:52:22;21.30;43.70
28548;DHT22;68292;49.600;8.746;2023-05-29T03:54:52;21.30;43.80
28548;DHT22;68292;49.600;8.746;2023-05-29T03:57:20;21.30;43.90
28548;DHT22;68292;49.600;8.746;2023-05-29T03:59:49;21.30;43.80
28548;DHT22;68292;49.600;8.746;2023-05-29T04:02:17;21.30;43.90
28548;DHT22;68292;49.600;8.746;2023-05-29T04:04:47;21.30;44.00
28548;DHT22;68292;49.600;8.746;2023-05-29T04:07:15;21.30;44.10
28548;DHT22;68292;49.600;8.746;2023-05-29T04:09:44;21.30;44.00
28548;DHT22;68292;49.600;8.746;2023-05-29T04:12:13;21.30;44.10
28548;DHT22;68292;49.600;8.746;2023-05-29T04:14:42;21.30;44.10
28548;DHT22;68292;49.600;8.746;2023-05-29T04:17:10;21.30;44.30
28548;DHT22;68292;49.600;8.746;2023-05-29T04:19:38;21.30;44.20
28548;DHT22;68292;49.600;8.746;2023-05-29T04:22:07;21.30;44.40
28548;DHT22;68292;49.600;8.746;2023-05-29T04:24:35;21.30;44.40
28548;DHT22;68292;49.600;8.746;2023-05-29T04:27:03;21.30;44.30
28548;DHT22;68292;49.600;8.746;2023-05-29T04:29:33;21.30;44.50
28548;DHT22;68292;49.600;8.746;2023-05-29T04:32:02;21.30;44.50
28548;DHT22;68292;49.600;8.746;2023-05-29T04:34:31;21.30;44.60
28548;DHT22;68292;49.600;8.746;2023-05-29T04:36:59;21.30;44.50
28548;DHT22;68292;49.600;8.746;2023-05-29T04:39:29;21.30;44.40
28548;DHT22;68292;49.600;8.746;2023-05-29T04:41:57;21.30;44.60
28548;DHT22;68292;49.600;8.746;2023-05-29T04:44:28;21.30;44.70
28548;DHT22;68292;49.600;8.746;2023-05-29T04:46:56;21.30;44.80
28548;DHT22;68292;49.600;8.746;2023-05-29T04:49:24;21.30;44.90
28548;DHT22;68292;49.600;8.746;2023-05-29T04:51:53;21.30;45.00
28548;DHT22;68292;49.600;8.746;2023-05-29T04:54:23;21.30;44.90
28548;DHT22;68292;49.600;8.746;2023-05-29T04:56:55;21.30;45.10
28548;DHT22;68292;49.600;8.746;2023-05-29T04:59:28;21.30;45.20
28548;DHT22;68292;49.600;8.746;2023-05-29T05:01:56;21.30;45.10
28548;DHT22;68292;49.600;8.746;2023-05-29T05:04:24;21.40;45.20
28548;DHT22;68292;49.600;8.746;2023-05-29T05:06:52;21.40;45.40
28548;DHT22;68292;49.600;8.746;2023-05-29T05:09:20;21.40;45.40
28548;DHT22;68292;49.600;8.746;2023-05-29T05:11:49;21.40;45.40
28548;DHT22;68292;49.600;8.746;2023-05-29T05:14:19;21.40;45.40
28548;DHT22;68292;49.600;8.746;2023-05-29T05:16:47;21.40;45.60
28548;DHT22;68292;49.600;8.746;2023-05-29T05:19:16;21.40;45.40
28548;DHT22;68292;49.600;8.746;2023-05-29T05:21:44;21.50;45.70
28548;DHT22;68292;49.600;8.746;2023-05-29T05:24:13;21.50;45.60
28548;DHT22;68292;49.600;8.746;2023-05-29T05:26:41;21.50;45.70
28548;DHT22;68292;49.600;8.746;2023-05-29T05:29:09;21.50;45.60
28548;DHT22;68292;49.600;8.746;2023-05-29T05:31:40;21.50;45.60
28548;DHT22;68292;49.600;8.746;2023-05-29T05:34:08;21.50;45.70
28548;DHT22;68292;49.600;8.746;2023-05-29T05:36:38;21.60;45.80
28548;DHT22;68292;49.600;8.746;2023-05-29T05:39:11;21.60;45.70
28548;DHT22;68292;49.600;8.746;2023-05-29T05:41:40;21.60;45.80
28548;DHT22;68292;49.600;8.746;2023-05-29T05:44:08;21.60;45.90
28548;DHT22;68292;49.600;8.746;2023-05-29T05:47:00;21.60;45.90
28548;DHT22;68292;49.600;8.746;2023-05-29T05:49:28;21.70;45.80
28548;DHT22;68292;49.600;8.746;2023-05-29T05:51:56;21.70;45.90
28548;DHT22;68292;49.600;8.746;2023-05-29T05:54:24;21.70;46.00
28548;DHT22;68292;49.600;8.746;2023-05-29T05:56:53;21.70;46.10
28548;DHT22;68292;49.600;8.746;2023-05-29T05:59:21;21.70;46.00
28548;DHT22;68292;49.600;8.746;2023-05-29T06:01:49;21.80;46.10
28548;DHT22;68292;49.600;8.746;2023-05-29T06:04:20;21.80;46.20
28548;DHT22;68292;49.600;8.746;2023-05-29T06:06:48;21.80;46.20
28548;DHT22;68292;49.600;8.746;2023-05-29T06:09:16;21.80;46.30
28548;DHT22;68292;49.600;8.746;2023-05-29T06:11:44;21.80;46.40
28548;DHT22;68292;49.600;8.746;2023-05-29T06:14:12;21.80;46.40
28548;DHT22;68292;49.600;8.746;2023-05-29T06:16:42;21.90;46.30
28548;DHT22;68292;49.600;8.746;2023-05-29T06:19:10;21.90;46.30
28548;DHT22;68292;49.600;8.746;2023-05-29T06:21:56;21.90;46.20
28548;DHT22;68292;49.600;8.746;2023-05-29T06:24:27;21.90;46.40
28548;DHT22;68292;49.600;8.746;2023-05-29T06:26:56;22.00;46.40
28548;DHT22;68292;49.600;8.746;2023-05-29T06:29:24;22.00;46.50
28548;DHT22;68292;49.600;8.746;2023-05-29T06:31:52;22.00;46.70
28548;DHT22;68292;49.600;8.746;2023-05-29T06:34:21;22.00;47.00
28548;DHT22;68292;49.600;8.746;2023-05-29T06:36:49;22.00;46.30
28548;DHT22;68292;49.600;8.746;2023-05-29T06:39:18;22.10;46.30
28548;DHT22;68292;49.600;8.746;2023-05-29T06:41:47;22.10;46.30
28548;DHT22;68292;49.600;8.746;2023-05-29T06:44:17;22.10;46.30
28548;DHT22;68292;49.600;8.746;2023-05-29T06:46:47;22.20;46.30
28548;DHT22;68292;49.600;8.746;2023-05-29T06:49:16;22.20;46.20
28548;DHT22;68292;49.600;8.746;2023-05-29T06:51:44;22.20;46.30
28548;DHT22;68292;49.600;8.746;2023-05-29T06:54:23;22.20;46.50
28548;DHT22;68292;49.600;8.746;2023-05-29T06:56:51;22.30;46.50
28548;DHT22;68292;49.600;8.746;2023-05-29T06:59:37;22.30;46.40
28548;DHT22;68292;49.600;8.746;2023-05-29T07:02:07;22.30;46.30
28548;DHT22;68292;49.600;8.746;2023-05-29T07:04:37;22.40;46.60
28548;DHT22;68292;49.600;8.746;2023-05-29T07:07:05;22.40;46.60
28548;DHT22;68292;49.600;8.746;2023-05-29T07:09:34;22.40;46.70
28548;DHT22;68292;49.600;8.746;2023-05-29T07:12:02;22.40;46.60
28548;DHT22;68292;49.600;8.746;2023-05-29T07:14:31;22.50;46.60
28548;DHT22;68292;49.600;8.746;2023-05-29T07:16:59;22.50;46.70
28548;DHT22;68292;49.600;8.746;2023-05-29T07:19:27;22.50;46.70
28548;DHT22;68292;49.600;8.746;2023-05-29T07:21:56;22.60;46.70
28548;DHT22;68292;49.600;8.746;2023-05-29T07:24:24;22.60;46.70
28548;DHT22;68292;49.600;8.746;2023-05-29T07:26:53;22.60;46.60
28548;DHT22;68292;49.600;8.746;2023-05-29T07:29:22;22.60;46.70
28548;DHT22;68292;49.600;8.746;2023-05-29T07:31:50;22.70;46.90
28548;DHT22;68292;49.600;8.746;2023-05-29T07:34:20;22.70;47.00
28548;DHT22;68292;49.600;8.746;2023-05-29T07:37:00;22.70;46.90
28548;DHT22;68292;49.600;8.746;2023-05-29T07:39:32;22.80;47.20
28548;DHT22;68292;49.600;8.746;2023-05-29T07:42:10;22.80;47.30
28548;DHT22;68292;49.600;8.746;2023-05-29T07:44:42;22.80;47.20
28548;DHT22;68292;49.600;8.746;2023-05-29T07:47:10;22.90;47.40
28548;DHT22;68292;49.600;8.746;2023-05-29T07:49:43;22.90;47.30
28548;DHT22;68292;49.600;8.746;2023-05-29T07:52:11;22.90;47.50
28548;DHT22;68292;49.600;8.746;2023-05-29T07:54:40;23.00;47.50
28548;DHT22;68292;49.600;8.746;2023-05-29T07:57:12;23.00;47.40
28548;DHT22;68292;49.600;8.746;2023-05-29T07:59:42;23.00;47.20
28548;DHT22;68292;49.600;8.746;2023-05-29T08:02:11;23.10;47.30
28548;DHT22;68292;49.600;8.746;2023-05-29T08:04:59;23.10;47.20
28548;DHT22;68292;49.600;8.746;2023-05-29T08:07:30;23.10;47.40
28548;DHT22;68292;49.600;8.746;2023-05-29T08:09:58;23.20;47.40
28548;DHT22;68292;49.600;8.746;2023-05-29T08:12:28;23.20;47.30
28548;DHT22;68292;49.600;8.746;2023-05-29T08:14:59;23.20;47.30
28548;DHT22;68292;49.600;8.746;2023-05-29T08:17:27;23.30;47.30
28548;DHT22;68292;49.600;8.746;2023-05-29T08:19:55;23.30;47.50
28548;DHT22;68292;49.600;8.746;2023-05-29T08:22:28;23.30;47.70
28548;DHT22;68292;49.600;8.746;2023-05-29T08:24:57;23.40;47.80
28548;DHT22;68292;49.600;8.746;2023-05-29T08:27:25;23.40;47.20
28548;DHT22;68292;49.600;8.746;2023-05-29T08:29:54;23.40;47.00
28548;DHT22;68292;49.600;8.746;2023-05-29T08:32:22;23.50;46.50
28548;DHT22;68292;49.600;8.746;2023-05-29T08:34:51;23.50;46.90
28548;DHT22;68292;49.600;8.746;2023-05-29T08:37:19;23.50;47.40
28548;DHT22;68292;49.600;8.746;2023-05-29T08:39:47;23.60;47.60
28548;DHT22;68292;49.600;8.746;2023-05-29T08:42:21;23.70;47.50
28548;DHT22;68292;49.600;8.746;2023-05-29T08:44:58;23.80;47.10
28548;DHT22;68292;49.600;8.746;2023-05-29T08:47:33;24.00;46.50
28548;DHT22;68292;49.600;8.746;2023-05-29T08:50:01;24.10;46.20
28548;DHT22;68292;49.600;8.746;2023-05-29T08:52:33;24.20;46.00
28548;DHT22;68292;49.600;8.746;2023-05-29T08:55:03;24.30;45.80
28548;DHT22;68292;49.600;8.746;2023-05-29T08:57:32;24.40;45.70
28548;DHT22;68292;49.600;8.746;2023-05-29T09:00:05;24.60;45.50
28548;DHT22;68292;49.600;8.746;2023-05-29T09:02:39;24.70;45.10
28548;DHT22;68292;49.600;8.746;2023-05-29T09:05:07;24.90;44.80
28548;DHT22;68292;49.600;8.746;2023-05-29T09:07:37;25.10;44.70
28548;DHT22;68292;49.600;8.746;2023-05-29T09:10:06;25.20;44.60
28548;DHT22;68292;49.600;8.746;2023-05-29T09:12:35;25.40;44.20
28548;DHT22;68292;49.600;8.746;2023-05-29T09:15:09;25.50;43.80
28548;DHT22;68292;49.600;8.746;2023-05-29T09:17:49;25.70;43.70
28548;DHT22;68292;49.600;8.746;2023-05-29T09:20:20;25.80;43.40
28548;DHT22;68292;49.600;8.746;2023-05-29T09:22:54;26.00;44.30
28548;DHT22;68292;49.600;8.746;2023-05-29T09:25:24;26.20;43.70
28548;DHT22;68292;49.600;8.746;2023-05-29T09:27:58;26.40;44.00
28548;DHT22;68292;49.600;8.746;2023-05-29T09:30:35;26.60;43.10
28548;DHT22;68292;49.600;8.746;2023-05-29T09:33:05;26.70;42.60
28548;DHT22;68292;49.600;8.746;2023-05-29T09:35:35;26.80;42.60
28548;DHT22;68292;49.600;8.746;2023-05-29T09:38:04;26.90;42.00
28548;DHT22;68292;49.600;8.746;2023-05-29T09:40:34;26.90;41.60
28548;DHT22;68292;49.600;8.746;2023-05-29T09:43:05;27.00;41.60
28548;DHT22;68292;49.600;8.746;2023-05-29T09:45:39;27.00;41.10
28548;DHT22;68292;49.600;8.746;2023-05-29T09:48:11;27.00;40.40
28548;DHT22;68292;49.600;8.746;2023-05-29T09:50:40;27.00;40.90
28548;DHT22;68292;49.600;8.746;2023-05-29T09:53:18;26.90;40.50
28548;DHT22;68292;49.600;8.746;2023-05-29T09:55:46;26.90;40.90
28548;DHT22;68292;49.600;8.746;2023-05-29T09:58:15;26.90;40.90
28548;DHT22;68292;49.600;8.746;2023-05-29T10:00:45;26.90;41.10
28548;DHT22;68292;49.600;8.746;2023-05-29T10:03:14;26.90;40.80
28548;DHT22;68292;49.600;8.746;2023-05-29T10:05:44;26.90;40.90
28548;DHT22;68292;49.600;8.746;2023-05-29T10:08:17;26.90;41.50
28548;DHT22;68292;49.600;8.746;2023-05-29T10:11:00;26.90;41.50
28548;DHT22;68292;49.600;8.746;2023-05-29T10:13:34;26.90;40.60
28548;DHT22;68292;49.600;8.746;2023-05-29T10:16:08;27.00;40.50
28548;DHT22;68292;49.600;8.746;2023-05-29T10:18:39;27.00;41.30
28548;DHT22;68292;49.600;8.746;2023-05-29T10:21:12;26.90;40.90
28548;DHT22;68292;49.600;8.746;2023-05-29T10:23:45;26.90;40.70
28548;DHT22;68292;49.600;8.746;2023-05-29T10:26:15;26.90;40.70
28548;DHT22;68292;49.600;8.746;2023-05-29T10:28:55;26.90;40.40
28548;DHT22;68292;49.600;8.746;2023-05-29T10:31:39;26.80;39.50
28548;DHT22;68292;49.600;8.746;2023-05-29T10:34:22;26.80;39.50
28548;DHT22;68292;49.600;8.746;2023-05-29T10:37:00;26.70;39.70
28548;DHT22;68292;49.600;8.746;2023-05-29T10:39:31;26.70;39.40
28548;DHT22;68292;49.600;8.746;2023-05-29T10:42:00;26.60;39.90
28548;DHT22;68292;49.600;8.746;2023-05-29T10:44:38;26.60;39.70
28548;DHT22;68292;49.600;8.746;2023-05-29T10:47:09;26.50;39.50
28548;DHT22;68292;49.600;8.746;2023-05-29T10:49:39;26.50;40.30
28548;DHT22;68292;49.600;8.746;2023-05-29T10:52:19;26.40;40.70
28548;DHT22;68292;49.600;8.746;2023-05-29T10:54:52;26.40;40.80
28548;DHT22;68292;49.600;8.746;2023-05-29T10:57:22;26.30;40.60
28548;DHT22;68292;49.600;8.746;2023-05-29T11:00:03;26.30;40.60
28548;DHT22;68292;49.600;8.746;2023-05-29T11:02:40;26.20;41.00
28548;DHT22;68292;49.600;8.746;2023-05-29T11:05:19;26.20;40.30
28548;DHT22;68292;49.600;8.746;2023-05-29T11:07:59;26.20;39.80
28548;DHT22;68292;49.600;8.746;2023-05-29T11:10:44;26.10;39.60
28548;DHT22;68292;49.600;8.746;2023-05-29T11:13:24;26.00;39.60
28548;DHT22;68292;49.600;8.746;2023-05-29T11:16:12;26.00;40.40
28548;DHT22;68292;49.600;8.746;2023-05-29T11:18:43;26.00;40.30
28548;DHT22;68292;49.600;8.746;2023-05-29T11:21:26;25.90;41.10
28548;DHT22;68292;49.600;8.746;2023-05-29T11:23:59;25.90;40.60
28548;DHT22;68292;49.600;8.746;2023-05-29T11:26:35;25.90;40.80
28548;DHT22;68292;49.600;8.746;2023-05-29T11:29:05;25.80;40.90
28548;DHT22;68292;49.600;8.746;2023-05-29T11:31:37;25.80;41.20
28548;DHT22;68292;49.600;8.746;2023-05-29T11:34:10;25.80;41.30
28548;DHT22;68292;49.600;8.746;2023-05-29T11:36:42;25.70;40.80
28548;DHT22;68292;49.600;8.746;2023-05-29T11:39:10;25.70;40.80
28548;DHT22;68292;49.600;8.746;2023-05-29T11:41:38;25.70;40.50
28548;DHT22;68292;49.600;8.746;2023-05-29T11:44:07;25.60;40.50
28548;DHT22;68292;49.600;8.746;2023-05-29T11:46:35;25.60;40.70
28548;DHT22;68292;49.600;8.746;2023-05-29T11:49:03;25.60;40.60
28548;DHT22;68292;49.600;8.746;2023-05-29T11:51:33;25.60;40.30
28548;DHT22;68292;49.600;8.746;2023-05-29T11:54:01;25.50;40.40
28548;DHT22;68292;49.600;8.746;2023-05-29T11:56:30;25.50;40.20
28548;DHT22;68292;49.600;8.746;2023-05-29T11:58:59;25.50;40.20
28548;DHT22;68292;49.600;8.746;2023-05-29T12:01:28;25.50;40.20
28548;DHT22;68292;49.600;8.746;2023-05-29T12:03:56;25.40;40.90
28548;DHT22;68292;49.600;8.746;2023-05-29T12:06:33;25.40;40.40
28548;DHT22;68292;49.600;8.746;2023-05-29T12:09:03;25.40;40.10
28548;DHT22;68292;49.600;8.746;2023-05-29T12:11:32;25.40;40.10
28548;DHT22;68292;49.600;8.746;2023-05-29T12:14:01;25.40;40.30
28548;DHT22;68292;49.600;8.746;2023-05-29T12:16:31;25.40;40.50
28548;DHT22;68292;49.600;8.746;2023-05-29T12:19:01;25.40;40.50
28548;DHT22;68292;49.600;8.746;2023-05-29T12:21:29;25.40;40.40
28548;DHT22;68292;49.600;8.746;2023-05-29T12:23:58;25.30;40.40
28548;DHT22;68292;49.600;8.746;2023-05-29T12:26:30;25.30;40.20
28548;DHT22;68292;49.600;8.746;2023-05-29T12:29:02;25.30;40.40
28548;DHT22;68292;49.600;8.746;2023-05-29T12:31:32;25.30;40.40
28548;DHT22;68292;49.600;8.746;2023-05-29T12:34:01;25.30;40.30
28548;DHT22;68292;49.600;8.746;2023-05-29T12:36:31;25.20;40.40
28548;DHT22;68292;49.600;8.746;2023-05-29T12:39:06;25.30;40.10
28548;DHT22;68292;49.600;8.746;2023-05-29T12:41:36;25.30;40.10
28548;DHT22;68292;49.600;8.746;2023-05-29T12:44:06;25.20;40.20
28548;DHT22;68292;49.600;8.746;2023-05-29T12:46:37;25.20;40.20
28548;DHT22;68292;49.600;8.746;2023-05-29T12:49:13;25.20;40.10
28548;DHT22;68292;49.600;8.746;2023-05-29T12:51:41;25.20;40.20
28548;DHT22;68292;49.600;8.746;2023-05-29T12:54:13;25.20;40.50
28548;DHT22;68292;49.600;8.746;2023-05-29T12:56:42;25.20;40.40
28548;DHT22;68292;49.600;8.746;2023-05-29T12:59:12;25.20;40.30
28548;DHT22;68292;49.600;8.746;2023-05-29T13:01:40;25.20;40.40
28548;DHT22;68292;49.600;8.746;2023-05-29T13:04:09;25.20;40.80
28548;DHT22;68292;49.600;8.746;2023-05-29T13:06:39;25.20;40.60
28548;DHT22;68292;49.600;8.746;2023-05-29T13:09:07;25.20;40.60
28548;DHT22;68292;49.600;8.746;2023-05-29T13:11:37;25.20;40.20
28548;DHT22;68292;49.600;8.746;2023-05-29T13:14:05;25.10;40.20
28548;DHT22;68292;49.600;8.746;2023-05-29T13:16:33;25.10;40.20
28548;DHT22;68292;49.600;8.746;2023-05-29T13:19:02;25.20;40.40
28548;DHT22;68292;49.600;8.746;2023-05-29T13:21:30;25.20;40.40
28548;DHT22;68292;49.600;8.746;2023-05-29T13:23:59;25.20;40.20
28548;DHT22;68292;49.600;8.746;2023-05-29T13:26:27;25.10;40.20
28548;DHT22;68292;49.600;8.746;2023-05-29T13:28:56;25.20;40.40
28548;DHT22;68292;49.600;8.746;2023-05-29T13:31:24;25.10;40.50
28548;DHT22;68292;49.600;8.746;2023-05-29T13:33:52;25.20;40.60
28548;DHT22;68292;49.600;8.746;2023-05-29T13:36:20;25.10;40.40
28548;DHT22;68292;49.600;8.746;2023-05-29T13:38:49;25.20;40.60
28548;DHT22;68292;49.600;8.746;2023-05-29T13:41:17;25.20;40.70
28548;DHT22;68292;49.600;8.746;2023-05-29T13:43:44;25.20;40.60
28548;DHT22;68292;49.600;8.746;2023-05-29T13:46:14;25.10;40.50
28548;DHT22;68292;49.600;8.746;2023-05-29T13:48:42;25.10;40.40
28548;DHT22;68292;49.600;8.746;2023-05-29T13:51:10;25.10;40.50
28548;DHT22;68292;49.600;8.746;2023-05-29T13:53:38;25.20;40.50
28548;DHT22;68292;49.600;8.746;2023-05-29T13:56:06;25.20;40.50
28548;DHT22;68292;49.600;8.746;2023-05-29T13:58:34;25.20;40.50
28548;DHT22;68292;49.600;8.746;2023-05-29T14:01:02;25.20;40.20
28548;DHT22;68292;49.600;8.746;2023-05-29T14:03:32;25.20;40.20
28548;DHT22;68292;49.600;8.746;2023-05-29T14:06:00;25.20;40.20
28548;DHT22;68292;49.600;8.746;2023-05-29T14:08:29;25.10;40.60
28548;DHT22;68292;49.600;8.746;2023-05-29T14:10:57;25.20;40.50
28548;DHT22;68292;49.600;8.746;2023-05-29T14:13:25;25.10;40.10
28548;DHT22;68292;49.600;8.746;2023-05-29T14:15:53;25.20;40.30
28548;DHT22;68292;49.600;8.746;2023-05-29T14:18:23;25.20;40.00
28548;DHT22;68292;49.600;8.746;2023-05-29T14:20:52;25.10;39.90
28548;DHT22;68292;49.600;8.746;2023-05-29T14:23:20;25.10;39.50
28548;DHT22;68292;49.600;8.746;2023-05-29T14:25:48;25.10;39.70
28548;DHT22;68292;49.600;8.746;2023-05-29T14:28:17;25.10;39.60
28548;DHT22;68292;49.600;8.746;2023-05-29T14:30:45;25.10;40.10
28548;DHT22;68292;49.600;8.746;2023-05-29T14:33:13;25.20;39.90
28548;DHT22;68292;49.600;8.746;2023-05-29T14:35:41;25.10;40.10
28548;DHT22;68292;49.600;8.746;2023-05-29T14:38:11;25.10;39.40
28548;DHT22;68292;49.600;8.746;2023-05-29T14:40:39;25.20;39.60
28548;DHT22;68292;49.600;8.746;2023-05-29T14:43:07;25.10;39.50
28548;DHT22;68292;49.600;8.746;2023-05-29T14:45:35;25.20;39.50
28548;DHT22;68292;49.600;8.746;2023-05-29T14:48:03;25.20;39.70
28548;DHT22;68292;49.600;8.746;2023-05-29T14:50:31;25.10;39.50
28548;DHT22;68292;49.600;8.746;2023-05-29T14:52:59;25.20;39.80
28548;DHT22;68292;49.600;8.746;2023-05-29T14:55:29;25.10;39.80
28548;DHT22;68292;49.600;8.746;2023-05-29T14:57:58;25.10;39.40
28548;DHT22;68292;49.600;8.746;2023-05-29T15:00:26;25.20;39.70
28548;DHT22;68292;49.600;8.746;2023-05-29T15:02:54;25.10;39.60
28548;DHT22;68292;49.600;8.746;2023-05-29T15:05:26;25.10;39.50
28548;DHT22;68292;49.600;8.746;2023-05-29T15:07:54;25.10;39.70
28548;DHT22;68292;49.600;8.746;2023-05-29T15:10:23;25.10;40.00
28548;DHT22;68292;49.600;8.746;2023-05-29T15:12:53;25.10;40.20
28548;DHT22;68292;49.600;8.746;2023-05-29T15:15:23;25.10;40.50
28548;DHT22;68292;49.600;8.746;2023-05-29T15:18:06;25.10;40.50
28548;DHT22;68292;49.600;8.746;2023-05-29T15:20:34;25.20;40.60
28548;DHT22;68292;49.600;8.746;2023-05-29T15:23:02;25.20;40.40
28548;DHT22;68292;49.600;8.746;2023-05-29T15:25:30;25.10;40.50
28548;DHT22;68292;49.600;8.746;2023-05-29T15:27:59;25.20;40.70
28548;DHT22;68292;49.600;8.746;2023-05-29T15:30:27;25.20;40.90
28548;DHT22;68292;49.600;8.746;2023-05-29T15:32:55;25.20;40.90
28548;DHT22;68292;49.600;8.746;2023-05-29T15:35:23;25.20;40.60
28548;DHT22;68292;49.600;8.746;2023-05-29T15:37:52;25.10;40.70
28548;DHT22;68292;49.600;8.746;2023-05-29T15:40:20;25.20;40.70
28548;DHT22;68292;49.600;8.746;2023-05-29T15:42:48;25.20;41.00
28548;DHT22;68292;49.600;8.746;2023-05-29T15:45:18;25.20;41.00
28548;DHT22;68292;49.600;8.746;2023-05-29T15:47:46;25.10;41.30
28548;DHT22;68292;49.600;8.746;2023-05-29T15:50:14;25.20;41.20